sensor_id;sensor_type;location;lat;lon;timestamp;temperature;humidity
49549;DHT22;35450;44.518;7.466;2023-04-25T00:00:48;14.00;50.40
49549;DHT22;35450;44.518;7.466;2023-04-25T00:03:52;14.00;51.30
49549;DHT22;35450;44.518;7.466;2023-04-25T00:06:56;13.90;52.00
49549;DHT22;35450;44.518;7.466;2023-04-25T00:10:01;13.80;50.60
49549;DHT22;35450;44.518;7.466;2023-04-25T00:13:05;13.80;49.80
49549;DHT22;35450;44.518;7.466;2023-04-25T00:16:09;13.80;50.90
49549;DHT22;35450;44.518;7.466;2023-04-25T00:19:14;13.80;49.80
49549;DHT22;35450;44.518;7.466;2023-04-25T00:22:18;13.70;48.20
49549;DHT22;35450;44.518;7.466;2023-04-25T00:25:22;13.70;47.80
49549;DHT22;35450;44.518;7.466;2023-04-25T00:28:27;13.80;47.80
49549;DHT22;35450;44.518;7.466;2023-04-25T00:31:31;13.80;47.60
49549;DHT22;35450;44.518;7.466;2023-04-25T00:34:35;13.90;47.30
49549;DHT22;35450;44.518;7.466;2023-04-25T00:37:39;14.00;46.20
49549;DHT22;35450;44.518;7.466;2023-04-25T00:40:43;14.00;45.70
49549;DHT22;35450;44.518;7.466;2023-04-25T00:43:48;14.10;46.30
49549;DHT22;35450;44.518;7.466;2023-04-25T00:46:55;14.10;46.20
49549;DHT22;35450;44.518;7.466;2023-04-25T00:49:59;14.20;46.20
49549;DHT22;35450;44.518;7.466;2023-04-25T00:53:03;14.20;46.50
49549;DHT22;35450;44.518;7.466;2023-04-25T00:56:07;14.10;46.70
49549;DHT22;35450;44.518;7.466;2023-04-25T00:59:12;14.00;46.70
49549;DHT22;35450;44.518;7.466;2023-04-25T01:02:17;14.10;46.60
49549;DHT22;35450;44.518;7.466;2023-04-25T01:05:21;14.10;47.10
49549;DHT22;35450;44.518;7.466;2023-04-25T01:08:26;14.00;47.10
49549;DHT22;35450;44.518;7.466;2023-04-25T01:11:30;14.00;48.00
49549;DHT22;35450;44.518;7.466;2023-04-25T01:14:34;13.90;48.40
49549;DHT22;35450;44.518;7.466;2023-04-25T01:17:38;13.80;49.50
49549;DHT22;35450;44.518;7.466;2023-04-25T01:20:44;13.70;49.10
49549;DHT22;35450;44.518;7.466;2023-04-25T01:23:49;13.70;49.70
49549;DHT22;35450;44.518;7.466;2023-04-25T01:26:54;13.60;49.10
49549;DHT22;35450;44.518;7.466;2023-04-25T01:30:01;13.50;49.40
49549;DHT22;35450;44.518;7.466;2023-04-25T01:33:08;13.50;50.10
49549;DHT22;35450;44.518;7.466;2023-04-25T01:36:13;13.50;50.20
49549;DHT22;35450;44.518;7.466;2023-04-25T01:39:18;13.40;50.90
49549;DHT22;35450;44.518;7.466;2023-04-25T01:42:22;13.40;51.20
49549;DHT22;35450;44.518;7.466;2023-04-25T01:45:26;13.40;49.20
49549;DHT22;35450;44.518;7.466;2023-04-25T01:48:31;13.30;49.00
49549;DHT22;35450;44.518;7.466;2023-04-25T01:51:35;13.30;48.60
49549;DHT22;35450;44.518;7.466;2023-04-25T01:54:40;13.20;48.30
49549;DHT22;35450;44.518;7.466;2023-04-25T01:57:47;13.20;48.00
49549;DHT22;35450;44.518;7.466;2023-04-25T02:00:52;13.30;47.80
49549;DHT22;35450;44.518;7.466;2023-04-25T02:03:56;13.30;48.00
49549;DHT22;35450;44.518;7.466;2023-04-25T02:07:08;13.30;48.30
49549;DHT22;35450;44.518;7.466;2023-04-25T02:10:26;13.40;48.50
49549;DHT22;35450;44.518;7.466;2023-04-25T02:13:45;13.30;48.50
49549;DHT22;35450;44.518;7.466;2023-04-25T02:16:56;13.30;48.50
49549;DHT22;35450;44.518;7.466;2023-04-25T02:20:01;13.30;48.80
49549;DHT22;35450;44.518;7.466;2023-04-25T02:23:05;13.30;49.10
49549;DHT22;35450;44.518;7.466;2023-04-25T02:26:09;13.30;48.90
49549;DHT22;35450;44.518;7.466;2023-04-25T02:29:15;13.30;49.10
49549;DHT22;35450;44.518;7.466;2023-04-25T02:32:19;13.40;49.40
49549;DHT22;35450;44.518;7.466;2023-04-25T02:35:24;13.40;50.40
49549;DHT22;35450;44.518;7.466;2023-04-25T02:38:31;13.30;49.90
49549;DHT22;35450;44.518;7.466;2023-04-25T02:41:35;13.20;50.20
49549;DHT22;35450;44.518;7.466;2023-04-25T02:44:39;13.20;50.50
49549;DHT22;35450;44.518;7.466;2023-04-25T02:47:43;13.20;50.50
49549;DHT22;35450;44.518;7.466;2023-04-25T02:50:49;13.20;50.40
49549;DHT22;35450;44.518;7.466;2023-04-25T02:53:52;13.20;50.50
49549;DHT22;35450;44.518;7.466;2023-04-25T02:56:56;13.20;50.50
49549;DHT22;35450;44.518;7.466;2023-04-25T03:00:05;13.20;50.70
49549;DHT22;35450;44.518;7.466;2023-04-25T03:03:09;13.10;50.70
49549;DHT22;35450;44.518;7.466;2023-04-25T03:06:13;13.10;50.70
49549;DHT22;35450;44.518;7.466;2023-04-25T03:09:17;12.90;51.20
49549;DHT22;35450;44.518;7.466;2023-04-25T03:12:22;13.00;51.40
49549;DHT22;35450;44.518;7.466;2023-04-25T03:15:25;12.90;51.40
49549;DHT22;35450;44.518;7.466;2023-04-25T03:18:30;12.90;51.20
49549;DHT22;35450;44.518;7.466;2023-04-25T03:21:35;12.90;51.60
49549;DHT22;35450;44.518;7.466;2023-04-25T03:24:38;12.90;51.20
49549;DHT22;35450;44.518;7.466;2023-04-25T03:27:42;12.80;51.10
49549;DHT22;35450;44.518;7.466;2023-04-25T03:30:47;12.70;50.90
49549;DHT22;35450;44.518;7.466;2023-04-25T03:33:50;12.80;50.30
49549;DHT22;35450;44.518;7.466;2023-04-25T03:36:57;12.90;50.30
49549;DHT22;35450;44.518;7.466;2023-04-25T03:40:01;12.90;50.40
49549;DHT22;35450;44.518;7.466;2023-04-25T03:43:25;13.00;50.60
49549;DHT22;35450;44.518;7.466;2023-04-25T03:46:34;13.00;50.20
49549;DHT22;35450;44.518;7.466;2023-04-25T03:49:39;13.00;50.30
49549;DHT22;35450;44.518;7.466;2023-04-25T03:52:44;13.00;50.90
49549;DHT22;35450;44.518;7.466;2023-04-25T03:55:48;12.90;50.00
49549;DHT22;35450;44.518;7.466;2023-04-25T03:58:51;12.90;50.20
49549;DHT22;35450;44.518;7.466;2023-04-25T04:01:57;12.80;50.40
49549;DHT22;35450;44.518;7.466;2023-04-25T04:05:02;12.80;50.50
49549;DHT22;35450;44.518;7.466;2023-04-25T04:08:07;12.80;50.90
49549;DHT22;35450;44.518;7.466;2023-04-25T04:11:12;12.80;50.70
49549;DHT22;35450;44.518;7.466;2023-04-25T04:14:16;12.80;50.50
49549;DHT22;35450;44.518;7.466;2023-04-25T04:17:22;12.70;50.60
49549;DHT22;35450;44.518;7.466;2023-04-25T04:20:29;12.70;50.30
49549;DHT22;35450;44.518;7.466;2023-04-25T04:23:34;12.70;50.70
49549;DHT22;35450;44.518;7.466;2023-04-25T04:26:39;12.60;50.50
49549;DHT22;35450;44.518;7.466;2023-04-25T04:29:49;12.60;50.70
49549;DHT22;35450;44.518;7.466;2023-04-25T04:33:08;12.60;50.90
49549;DHT22;35450;44.518;7.466;2023-04-25T04:36:13;12.60;51.00
49549;DHT22;35450;44.518;7.466;2023-04-25T04:39:18;12.60;51.10
49549;DHT22;35450;44.518;7.466;2023-04-25T04:42:33;12.50;51.40
49549;DHT22;35450;44.518;7.466;2023-04-25T04:45:56;12.50;51.20
49549;DHT22;35450;44.518;7.466;2023-04-25T04:49:19;12.50;51.80
49549;DHT22;35450;44.518;7.466;2023-04-25T04:52:52;12.60;51.80
49549;DHT22;35450;44.518;7.466;2023-04-25T04:56:12;12.60;52.00
49549;DHT22;35450;44.518;7.466;2023-04-25T04:59:30;12.50;53.00
49549;DHT22;35450;44.518;7.466;2023-04-25T05:02:56;12.40;53.70
49549;DHT22;35450;44.518;7.466;2023-04-25T05:06:20;12.40;53.90
49549;DHT22;35450;44.518;7.466;2023-04-25T05:09:42;12.30;54.60
49549;DHT22;35450;44.518;7.466;2023-04-25T05:13:18;12.30;54.70
49549;DHT22;35450;44.518;7.466;2023-04-25T05:16:43;12.50;54.00
49549;DHT22;35450;44.518;7.466;2023-04-25T05:20:06;12.60;55.40
49549;DHT22;35450;44.518;7.466;2023-04-25T05:23:28;12.50;57.00
49549;DHT22;35450;44.518;7.466;2023-04-25T05:27:08;12.50;57.20
49549;DHT22;35450;44.518;7.466;2023-04-25T05:30:43;12.50;56.20
49549;DHT22;35450;44.518;7.466;2023-04-25T05:33:52;12.60;55.90
49549;DHT22;35450;44.518;7.466;2023-04-25T05:36:57;12.70;55.90
49549;DHT22;35450;44.518;7.466;2023-04-25T05:40:02;12.80;56.20
49549;DHT22;35450;44.518;7.466;2023-04-25T05:43:37;12.90;57.00
49549;DHT22;35450;44.518;7.466;2023-04-25T05:47:05;13.00;56.50
49549;DHT22;35450;44.518;7.466;2023-04-25T05:50:29;13.20;55.70
49549;DHT22;35450;44.518;7.466;2023-04-25T05:53:39;13.30;54.70
49549;DHT22;35450;44.518;7.466;2023-04-25T05:56:43;13.40;54.20
49549;DHT22;35450;44.518;7.466;2023-04-25T05:59:47;13.40;55.10
49549;DHT22;35450;44.518;7.466;2023-04-25T06:02:52;13.50;54.50
49549;DHT22;35450;44.518;7.466;2023-04-25T06:05:56;13.60;55.30
49549;DHT22;35450;44.518;7.466;2023-04-25T06:09:00;13.70;53.80
49549;DHT22;35450;44.518;7.466;2023-04-25T06:12:05;13.80;53.90
49549;DHT22;35450;44.518;7.466;2023-04-25T06:15:10;13.90;54.10
49549;DHT22;35450;44.518;7.466;2023-04-25T06:18:14;14.00;53.00
49549;DHT22;35450;44.518;7.466;2023-04-25T06:21:18;14.10;52.90
49549;DHT22;35450;44.518;7.466;2023-04-25T06:24:22;14.20;52.10
49549;DHT22;35450;44.518;7.466;2023-04-25T06:27:26;14.30;52.00
49549;DHT22;35450;44.518;7.466;2023-04-25T06:30:30;14.30;53.40
49549;DHT22;35450;44.518;7.466;2023-04-25T06:33:40;14.40;53.20
49549;DHT22;35450;44.518;7.466;2023-04-25T06:36:44;14.40;52.10
49549;DHT22;35450;44.518;7.466;2023-04-25T06:39:52;14.50;52.30
49549;DHT22;35450;44.518;7.466;2023-04-25T06:42:56;14.50;52.50
49549;DHT22;35450;44.518;7.466;2023-04-25T06:46:31;14.50;53.00
49549;DHT22;35450;44.518;7.466;2023-04-25T06:49:36;14.60;52.70
49549;DHT22;35450;44.518;7.466;2023-04-25T06:52:40;14.60;51.00
49549;DHT22;35450;44.518;7.466;2023-04-25T06:55:44;14.70;51.40
49549;DHT22;35450;44.518;7.466;2023-04-25T06:58:57;14.70;51.50
49549;DHT22;35450;44.518;7.466;2023-04-25T07:02:12;14.70;51.40
49549;DHT22;35450;44.518;7.466;2023-04-25T07:05:16;14.70;50.80
49549;DHT22;35450;44.518;7.466;2023-04-25T07:08:21;14.70;51.20
49549;DHT22;35450;44.518;7.466;2023-04-25T07:11:25;14.80;51.70
49549;DHT22;35450;44.518;7.466;2023-04-25T07:14:29;14.80;52.90
49549;DHT22;35450;44.518;7.466;2023-04-25T07:17:34;14.90;53.10
49549;DHT22;35450;44.518;7.466;2023-04-25T07:20:38;14.90;51.60
49549;DHT22;35450;44.518;7.466;2023-04-25T07:23:43;14.90;50.90
49549;DHT22;35450;44.518;7.466;2023-04-25T07:26:51;14.90;49.90
49549;DHT22;35450;44.518;7.466;2023-04-25T07:30:27;14.90;50.00
49549;DHT22;35450;44.518;7.466;2023-04-25T07:33:33;15.00;50.50
49549;DHT22;35450;44.518;7.466;2023-04-25T07:36:37;15.00;51.70
49549;DHT22;35450;44.518;7.466;2023-04-25T07:39:42;15.00;51.70
49549;DHT22;35450;44.518;7.466;2023-04-25T07:42:46;15.10;52.10
49549;DHT22;35450;44.518;7.466;2023-04-25T07:45:54;15.00;52.80
49549;DHT22;35450;44.518;7.466;2023-04-25T07:48:59;15.10;53.80
49549;DHT22;35450;44.518;7.466;2023-04-25T07:52:04;15.20;53.00
49549;DHT22;35450;44.518;7.466;2023-04-25T07:55:11;15.20;53.10
49549;DHT22;35450;44.518;7.466;2023-04-25T07:58:27;15.20;53.90
49549;DHT22;35450;44.518;7.466;2023-04-25T08:01:35;15.20;53.50
49549;DHT22;35450;44.518;7.466;2023-04-25T08:04:42;15.30;53.70
49549;DHT22;35450;44.518;7.466;2023-04-25T08:07:47;15.20;53.40
49549;DHT22;35450;44.518;7.466;2023-04-25T08:10:51;15.30;54.00
49549;DHT22;35450;44.518;7.466;2023-04-25T08:13:56;15.30;54.10
49549;DHT22;35450;44.518;7.466;2023-04-25T08:17:00;15.30;53.30
49549;DHT22;35450;44.518;7.466;2023-04-25T08:20:05;15.40;53.80
49549;DHT22;35450;44.518;7.466;2023-04-25T08:23:12;15.30;53.10
49549;DHT22;35450;44.518;7.466;2023-04-25T08:26:28;15.40;52.90
49549;DHT22;35450;44.518;7.466;2023-04-25T08:29:33;15.40;53.00
49549;DHT22;35450;44.518;7.466;2023-04-25T08:32:37;15.40;54.70
49549;DHT22;35450;44.518;7.466;2023-04-25T08:36:03;15.40;55.40
49549;DHT22;35450;44.518;7.466;2023-04-25T08:39:08;15.50;55.30
49549;DHT22;35450;44.518;7.466;2023-04-25T08:42:21;15.60;55.00
49549;DHT22;35450;44.518;7.466;2023-04-25T08:45:27;15.50;54.60
49549;DHT22;35450;44.518;7.466;2023-04-25T08:48:35;15.60;55.10
49549;DHT22;35450;44.518;7.466;2023-04-25T08:51:45;15.60;54.70
49549;DHT22;35450;44.518;7.466;2023-04-25T08:54:57;15.60;56.40
49549;DHT22;35450;44.518;7.466;2023-04-25T08:58:02;15.60;54.30
49549;DHT22;35450;44.518;7.466;2023-04-25T09:01:06;15.70;56.00
49549;DHT22;35450;44.518;7.466;2023-04-25T09:04:18;15.70;55.20
49549;DHT22;35450;44.518;7.466;2023-04-25T09:07:23;15.60;56.20
49549;DHT22;35450;44.518;7.466;2023-04-25T09:10:29;15.70;57.10
49549;DHT22;35450;44.518;7.466;2023-04-25T09:13:35;15.70;57.40
49549;DHT22;35450;44.518;7.466;2023-04-25T09:17:00;15.80;57.80
49549;DHT22;35450;44.518;7.466;2023-04-25T09:20:16;15.90;57.80
49549;DHT22;35450;44.518;7.466;2023-04-25T09:23:21;15.90;57.70
49549;DHT22;35450;44.518;7.466;2023-04-25T09:26:26;16.00;58.70
49549;DHT22;35450;44.518;7.466;2023-04-25T09:29:31;16.10;56.70
49549;DHT22;35450;44.518;7.466;2023-04-25T09:32:36;16.20;57.70
49549;DHT22;35450;44.518;7.466;2023-04-25T09:35:43;16.20;58.20
49549;DHT22;35450;44.518;7.466;2023-04-25T09:38:55;16.10;57.00
49549;DHT22;35450;44.518;7.466;2023-04-25T09:42:22;16.00;56.70
49549;DHT22;35450;44.518;7.466;2023-04-25T09:45:29;16.00;54.70
49549;DHT22;35450;44.518;7.466;2023-04-25T09:48:35;16.10;53.50
49549;DHT22;35450;44.518;7.466;2023-04-25T09:51:41;16.20;54.10
49549;DHT22;35450;44.518;7.466;2023-04-25T09:54:48;16.30;54.80
49549;DHT22;35450;44.518;7.466;2023-04-25T09:58:05;16.30;54.50
49549;DHT22;35450;44.518;7.466;2023-04-25T10:01:11;16.40;53.70
49549;DHT22;35450;44.518;7.466;2023-04-25T10:04:33;16.40;53.50
49549;DHT22;35450;44.518;7.466;2023-04-25T10:07:51;16.50;52.40
49549;DHT22;35450;44.518;7.466;2023-04-25T10:10:56;16.60;52.10
49549;DHT22;35450;44.518;7.466;2023-04-25T10:14:04;16.60;53.00
49549;DHT22;35450;44.518;7.466;2023-04-25T10:17:10;16.70;52.70
49549;DHT22;35450;44.518;7.466;2023-04-25T10:20:15;16.80;51.50
49549;DHT22;35450;44.518;7.466;2023-04-25T10:23:20;16.80;51.20
49549;DHT22;35450;44.518;7.466;2023-04-25T10:26:24;16.70;50.80
49549;DHT22;35450;44.518;7.466;2023-04-25T10:29:29;16.70;51.10
49549;DHT22;35450;44.518;7.466;2023-04-25T10:32:33;16.80;50.00
49549;DHT22;35450;44.518;7.466;2023-04-25T10:35:38;16.80;50.00
49549;DHT22;35450;44.518;7.466;2023-04-25T10:38:43;16.90;49.60
49549;DHT22;35450;44.518;7.466;2023-04-25T10:41:57;16.90;49.00
49549;DHT22;35450;44.518;7.466;2023-04-25T10:45:04;17.00;50.90
49549;DHT22;35450;44.518;7.466;2023-04-25T10:48:31;17.00;50.20
49549;DHT22;35450;44.518;7.466;2023-04-25T10:51:36;17.00;50.60
49549;DHT22;35450;44.518;7.466;2023-04-25T10:54:47;17.10;50.60
49549;DHT22;35450;44.518;7.466;2023-04-25T10:57:51;17.10;50.90
49549;DHT22;35450;44.518;7.466;2023-04-25T11:00:55;17.10;52.20
49549;DHT22;35450;44.518;7.466;2023-04-25T11:03:59;17.10;51.80
49549;DHT22;35450;44.518;7.466;2023-04-25T11:10:41;17.20;52.00
49549;DHT22;35450;44.518;7.466;2023-04-25T11:13:49;17.30;51.00
49549;DHT22;35450;44.518;7.466;2023-04-25T11:16:55;17.30;51.40
49549;DHT22;35450;44.518;7.466;2023-04-25T11:20:02;17.40;51.70
49549;DHT22;35450;44.518;7.466;2023-04-25T11:23:11;17.40;51.20
49549;DHT22;35450;44.518;7.466;2023-04-25T11:26:14;17.40;52.80
49549;DHT22;35450;44.518;7.466;2023-04-25T11:29:22;17.50;51.40
49549;DHT22;35450;44.518;7.466;2023-04-25T11:32:26;17.40;51.10
49549;DHT22;35450;44.518;7.466;2023-04-25T11:35:30;17.50;51.60
49549;DHT22;35450;44.518;7.466;2023-04-25T11:38:35;17.40;51.60
49549;DHT22;35450;44.518;7.466;2023-04-25T11:41:39;17.50;52.50
49549;DHT22;35450;44.518;7.466;2023-04-25T11:44:43;17.60;54.50
49549;DHT22;35450;44.518;7.466;2023-04-25T11:47:47;17.60;52.60
49549;DHT22;35450;44.518;7.466;2023-04-25T11:50:53;17.70;53.10
49549;DHT22;35450;44.518;7.466;2023-04-25T11:53:58;17.70;52.70
49549;DHT22;35450;44.518;7.466;2023-04-25T11:57:04;17.80;53.90
49549;DHT22;35450;44.518;7.466;2023-04-25T12:00:10;17.80;53.50
49549;DHT22;35450;44.518;7.466;2023-04-25T12:03:18;17.90;53.50
49549;DHT22;35450;44.518;7.466;2023-04-25T12:06:26;17.90;52.10
49549;DHT22;35450;44.518;7.466;2023-04-25T12:09:32;17.90;51.50
49549;DHT22;35450;44.518;7.466;2023-04-25T12:12:37;17.90;51.50
49549;DHT22;35450;44.518;7.466;2023-04-25T12:15:41;17.90;51.20
49549;DHT22;35450;44.518;7.466;2023-04-25T12:18:45;17.90;50.90
49549;DHT22;35450;44.518;7.466;2023-04-25T12:21:50;17.90;51.70
49549;DHT22;35450;44.518;7.466;2023-04-25T12:24:54;18.00;50.60
49549;DHT22;35450;44.518;7.466;2023-04-25T12:28:18;18.00;51.40
49549;DHT22;35450;44.518;7.466;2023-04-25T12:31:23;18.00;51.80
49549;DHT22;35450;44.518;7.466;2023-04-25T12:34:27;18.00;52.20
49549;DHT22;35450;44.518;7.466;2023-04-25T12:37:32;18.00;53.00
49549;DHT22;35450;44.518;7.466;2023-04-25T12:40:36;18.00;53.50
49549;DHT22;35450;44.518;7.466;2023-04-25T12:43:40;18.00;53.90
49549;DHT22;35450;44.518;7.466;2023-04-25T12:46:44;18.10;54.70
49549;DHT22;35450;44.518;7.466;2023-04-25T12:49:48;18.30;54.60
49549;DHT22;35450;44.518;7.466;2023-04-25T12:52:52;18.30;54.00
49549;DHT22;35450;44.518;7.466;2023-04-25T12:55:56;18.30;53.90
49549;DHT22;35450;44.518;7.466;2023-04-25T12:59:01;18.30;51.90
49549;DHT22;35450;44.518;7.466;2023-04-25T13:02:06;18.30;53.60
49549;DHT22;35450;44.518;7.466;2023-04-25T13:05:10;18.30;52.70
49549;DHT22;35450;44.518;7.466;2023-04-25T13:08:15;18.30;51.90
49549;DHT22;35450;44.518;7.466;2023-04-25T13:11:19;18.30;51.80
49549;DHT22;35450;44.518;7.466;2023-04-25T13:14:23;18.40;54.00
49549;DHT22;35450;44.518;7.466;2023-04-25T13:17:27;18.40;55.60
49549;DHT22;35450;44.518;7.466;2023-04-25T13:20:31;18.50;53.50
49549;DHT22;35450;44.518;7.466;2023-04-25T13:23:35;18.60;53.60
49549;DHT22;35450;44.518;7.466;2023-04-25T13:26:39;18.60;52.50
49549;DHT22;35450;44.518;7.466;2023-04-25T13:29:43;18.60;52.60
49549;DHT22;35450;44.518;7.466;2023-04-25T13:32:47;18.70;55.70
49549;DHT22;35450;44.518;7.466;2023-04-25T13:35:51;18.80;55.60
49549;DHT22;35450;44.518;7.466;2023-04-25T13:38:59;18.80;53.40
49549;DHT22;35450;44.518;7.466;2023-04-25T13:42:03;18.80;53.70
49549;DHT22;35450;44.518;7.466;2023-04-25T13:45:08;18.90;54.40
49549;DHT22;35450;44.518;7.466;2023-04-25T13:48:12;18.90;53.60
49549;DHT22;35450;44.518;7.466;2023-04-25T13:51:16;18.90;53.80
49549;DHT22;35450;44.518;7.466;2023-04-25T13:54:21;18.90;54.30
49549;DHT22;35450;44.518;7.466;2023-04-25T13:57:25;18.90;53.70
49549;DHT22;35450;44.518;7.466;2023-04-25T14:00:29;18.90;53.10
49549;DHT22;35450;44.518;7.466;2023-04-25T14:03:33;18.90;53.10
49549;DHT22;35450;44.518;7.466;2023-04-25T14:06:37;18.90;52.50
49549;DHT22;35450;44.518;7.466;2023-04-25T14:09:41;19.00;52.50
49549;DHT22;35450;44.518;7.466;2023-04-25T14:12:45;19.00;51.90
49549;DHT22;35450;44.518;7.466;2023-04-25T14:15:49;19.10;51.70
49549;DHT22;35450;44.518;7.466;2023-04-25T14:18:54;19.10;51.70
49549;DHT22;35450;44.518;7.466;2023-04-25T14:21:57;19.10;50.60
49549;DHT22;35450;44.518;7.466;2023-04-25T14:25:02;19.10;50.40
49549;DHT22;35450;44.518;7.466;2023-04-25T14:28:06;19.20;50.40
49549;DHT22;35450;44.518;7.466;2023-04-25T14:31:11;19.20;50.70
49549;DHT22;35450;44.518;7.466;2023-04-25T14:34:15;19.20;50.00
49549;DHT22;35450;44.518;7.466;2023-04-25T14:37:19;19.20;49.50
49549;DHT22;35450;44.518;7.466;2023-04-25T14:40:23;19.30;49.50
49549;DHT22;35450;44.518;7.466;2023-04-25T14:43:27;19.40;48.00
49549;DHT22;35450;44.518;7.466;2023-04-25T14:46:31;19.40;48.00
49549;DHT22;35450;44.518;7.466;2023-04-25T14:49:35;19.40;47.70
49549;DHT22;35450;44.518;7.466;2023-04-25T14:52:39;19.50;46.50
49549;DHT22;35450;44.518;7.466;2023-04-25T14:55:44;19.60;46.30
49549;DHT22;35450;44.518;7.466;2023-04-25T14:58:47;19.60;46.50
49549;DHT22;35450;44.518;7.466;2023-04-25T15:01:51;19.60;46.50
49549;DHT22;35450;44.518;7.466;2023-04-25T15:04:55;19.60;47.50
49549;DHT22;35450;44.518;7.466;2023-04-25T15:07:59;19.60;48.40
49549;DHT22;35450;44.518;7.466;2023-04-25T15:11:04;19.70;47.30
49549;DHT22;35450;44.518;7.466;2023-04-25T15:14:08;19.80;46.90
49549;DHT22;35450;44.518;7.466;2023-04-25T15:17:12;19.80;47.10
49549;DHT22;35450;44.518;7.466;2023-04-25T15:20:17;19.80;45.70
49549;DHT22;35450;44.518;7.466;2023-04-25T15:23:22;19.80;45.30
49549;DHT22;35450;44.518;7.466;2023-04-25T15:26:27;19.80;47.50
49549;DHT22;35450;44.518;7.466;2023-04-25T15:29:30;19.90;47.60
49549;DHT22;35450;44.518;7.466;2023-04-25T15:32:34;20.00;47.50
49549;DHT22;35450;44.518;7.466;2023-04-25T15:35:38;20.00;47.50
49549;DHT22;35450;44.518;7.466;2023-04-25T15:38:42;20.10;48.20
49549;DHT22;35450;44.518;7.466;2023-04-25T15:41:46;20.20;48.30
49549;DHT22;35450;44.518;7.466;2023-04-25T15:44:50;20.50;48.10
49549;DHT22;35450;44.518;7.466;2023-04-25T15:47:55;20.70;47.30
49549;DHT22;35450;44.518;7.466;2023-04-25T15:50:59;21.00;47.10
49549;DHT22;35450;44.518;7.466;2023-04-25T15:54:04;21.50;47.20
49549;DHT22;35450;44.518;7.466;2023-04-25T15:57:08;21.80;46.80
49549;DHT22;35450;44.518;7.466;2023-04-25T16:00:15;22.20;46.30
49549;DHT22;35450;44.518;7.466;2023-04-25T16:03:21;22.60;44.60
49549;DHT22;35450;44.518;7.466;2023-04-25T16:06:26;23.40;44.00
49549;DHT22;35450;44.518;7.466;2023-04-25T16:09:30;24.50;42.40
49549;DHT22;35450;44.518;7.466;2023-04-25T16:12:35;25.60;40.00
49549;DHT22;35450;44.518;7.466;2023-04-25T16:15:39;26.80;38.40
49549;DHT22;35450;44.518;7.466;2023-04-25T16:18:43;26.20;36.70
49549;DHT22;35450;44.518;7.466;2023-04-25T16:21:47;26.70;36.10
49549;DHT22;35450;44.518;7.466;2023-04-25T16:24:52;25.30;36.60
49549;DHT22;35450;44.518;7.466;2023-04-25T16:27:56;23.70;36.70
49549;DHT22;35450;44.518;7.466;2023-04-25T16:31:00;22.90;36.80
49549;DHT22;35450;44.518;7.466;2023-04-25T16:34:04;22.20;38.40
49549;DHT22;35450;44.518;7.466;2023-04-25T16:37:08;21.80;38.10
49549;DHT22;35450;44.518;7.466;2023-04-25T16:40:13;21.60;39.80
49549;DHT22;35450;44.518;7.466;2023-04-25T16:43:17;21.20;40.20
49549;DHT22;35450;44.518;7.466;2023-04-25T16:46:23;21.10;40.20
49549;DHT22;35450;44.518;7.466;2023-04-25T16:49:27;21.20;39.60
49549;DHT22;35450;44.518;7.466;2023-04-25T16:52:31;21.10;40.00
49549;DHT22;35450;44.518;7.466;2023-04-25T16:55:35;21.20;39.90
49549;DHT22;35450;44.518;7.466;2023-04-25T16:58:40;21.20;40.00
49549;DHT22;35450;44.518;7.466;2023-04-25T17:01:44;21.30;41.10
49549;DHT22;35450;44.518;7.466;2023-04-25T17:04:48;21.30;41.80
49549;DHT22;35450;44.518;7.466;2023-04-25T17:07:52;21.30;42.10
49549;DHT22;35450;44.518;7.466;2023-04-25T17:10:56;21.30;42.30
49549;DHT22;35450;44.518;7.466;2023-04-25T17:14:00;21.40;42.20
49549;DHT22;35450;44.518;7.466;2023-04-25T17:17:04;21.30;42.10
49549;DHT22;35450;44.518;7.466;2023-04-25T17:20:08;20.90;41.70
49549;DHT22;35450;44.518;7.466;2023-04-25T17:23:18;20.50;42.20
49549;DHT22;35450;44.518;7.466;2023-04-25T17:26:22;20.10;42.10
49549;DHT22;35450;44.518;7.466;2023-04-25T17:29:26;19.80;42.70
49549;DHT22;35450;44.518;7.466;2023-04-25T17:32:30;19.40;43.80
49549;DHT22;35450;44.518;7.466;2023-04-25T17:35:34;19.00;44.60
49549;DHT22;35450;44.518;7.466;2023-04-25T17:38:39;19.00;45.00
49549;DHT22;35450;44.518;7.466;2023-04-25T17:41:43;18.90;45.10
49549;DHT22;35450;44.518;7.466;2023-04-25T17:44:47;18.80;45.70
49549;DHT22;35450;44.518;7.466;2023-04-25T17:47:51;18.60;45.90
49549;DHT22;35450;44.518;7.466;2023-04-25T17:50:55;18.50;46.60
49549;DHT22;35450;44.518;7.466;2023-04-25T17:53:59;18.30;47.20
49549;DHT22;35450;44.518;7.466;2023-04-25T17:57:03;18.30;47.80
49549;DHT22;35450;44.518;7.466;2023-04-25T18:00:08;18.10;48.30
49549;DHT22;35450;44.518;7.466;2023-04-25T18:03:16;18.10;48.60
49549;DHT22;35450;44.518;7.466;2023-04-25T18:06:20;18.00;48.90
49549;DHT22;35450;44.518;7.466;2023-04-25T18:09:24;18.00;48.80
49549;DHT22;35450;44.518;7.466;2023-04-25T18:12:28;17.90;49.20
49549;DHT22;35450;44.518;7.466;2023-04-25T18:15:32;17.80;49.60
49549;DHT22;35450;44.518;7.466;2023-04-25T18:18:36;17.60;49.30
49549;DHT22;35450;44.518;7.466;2023-04-25T18:21:41;17.50;49.20
49549;DHT22;35450;44.518;7.466;2023-04-25T18:24:49;17.50;49.10
49549;DHT22;35450;44.518;7.466;2023-04-25T18:27:53;17.40;48.80
49549;DHT22;35450;44.518;7.466;2023-04-25T18:30:57;17.40;48.90
49549;DHT22;35450;44.518;7.466;2023-04-25T18:34:01;17.20;47.40
49549;DHT22;35450;44.518;7.466;2023-04-25T18:37:05;17.20;46.80
49549;DHT22;35450;44.518;7.466;2023-04-25T18:40:09;17.20;45.50
49549;DHT22;35450;44.518;7.466;2023-04-25T18:43:16;17.20;44.70
49549;DHT22;35450;44.518;7.466;2023-04-25T18:46:20;17.20;45.30
49549;DHT22;35450;44.518;7.466;2023-04-25T18:49:27;17.20;45.20
49549;DHT22;35450;44.518;7.466;2023-04-25T18:52:31;17.10;45.80
49549;DHT22;35450;44.518;7.466;2023-04-25T18:55:35;17.20;45.80
49549;DHT22;35450;44.518;7.466;2023-04-25T18:58:39;17.20;46.40
49549;DHT22;35450;44.518;7.466;2023-04-25T19:01:43;17.20;47.10
49549;DHT22;35450;44.518;7.466;2023-04-25T19:04:47;17.40;46.60
49549;DHT22;35450;44.518;7.466;2023-04-25T19:07:50;17.40;46.70
49549;DHT22;35450;44.518;7.466;2023-04-25T19:10:55;17.40;48.60
49549;DHT22;35450;44.518;7.466;2023-04-25T19:13:59;17.40;49.20
49549;DHT22;35450;44.518;7.466;2023-04-25T19:17:03;17.30;48.70
49549;DHT22;35450;44.518;7.466;2023-04-25T19:20:08;17.30;48.70
49549;DHT22;35450;44.518;7.466;2023-04-25T19:23:12;17.20;50.10
49549;DHT22;35450;44.518;7.466;2023-04-25T19:26:16;17.10;51.10
49549;DHT22;35450;44.518;7.466;2023-04-25T19:29:21;17.10;52.30
49549;DHT22;35450;44.518;7.466;2023-04-25T19:32:26;17.10;53.00
49549;DHT22;35450;44.518;7.466;2023-04-25T19:35:29;17.00;53.40
49549;DHT22;35450;44.518;7.466;2023-04-25T19:38:35;17.00;53.90
49549;DHT22;35450;44.518;7.466;2023-04-25T19:41:39;16.90;54.40